ELLX/LUX METAR and TAF weather

Enter ICAO airport designator
Station Type Date Time Source
ELLX METAR 2021/09/25 02:50 UTC NOAA

ELLX 250250Z VRB02KT 8000 NSC 11/11 Q1017 NOSIG


Station Type Date Time Source
ELLX Decoded METAR 2021/09/25 02:50 UTC NOAA

Luxembourg / Luxembourg, Luxembourg (ELLX) 49-37N 006-13E 379M
Sep 24, 2021 - 10:50 PM EDT / 2021.09.25 0250 UTC
Wind: Variable at 2 MPH (2 KT):0
Visibility: 4 mile(s):0
Temperature: 51 F (11 C)
Dew Point: 51 F (11 C)
Relative Humidity: 100%
Pressure (altimeter): 30.03 in. Hg (1017 hPa)
ob: ELLX 250250Z VRB02KT 8000 NSC 11/11 Q1017 NOSIG
cycle: 3

Station Type Date Time Source
ELLX TAF 2021/09/24 18:27 UTC NOAA

TAF ELLX 241700Z 2418/2524 28005KT CAVOK
BECMG 2421/2424 VRB02KT
BECMG 2503/2506 0500 FG VV002
BECMG 2508/2511 12006KT CAVOK

Example: see airport list